Time;durP1;ratioP1;P1;durP2;ratioP2;P2;SDS_P1;SDS_P2;PMS_P1;PMS_P2;Temp;Humidity;BMP_temperature;BMP_pressure;BME280_temperature;BME280_humidity;BME280_pressure;Samples;Min_cycle;Max_cycle;Signal;HPM_P1;HPM_P2
2023/05/28 00:00:33;;;;;;;8.10;3.00;;;12.00;99.90;;;;;;5137407;27;20039;-78
2023/05/28 00:02:59;;;;;;;7.25;2.83;;;11.90;99.90;;;;;;5137388;27;20514;-78
2023/05/28 00:05:25;;;;;;;9.43;3.13;;;11.90;99.90;;;;;;5138204;27;20421;-78
2023/05/28 00:07:51;;;;;;;7.45;2.78;;;11.90;99.90;;;;;;5102709;27;20039;-78
2023/05/28 00:10:16;;;;;;;7.28;2.95;;;11.90;99.90;;;;;;5137811;27;20054;-78
2023/05/28 00:12:43;;;;;;;10.05;2.72;;;11.90;99.90;;;;;;5137117;27;20118;-78
2023/05/28 00:15:09;;;;;;;10.85;3.25;;;11.80;99.90;;;;;;5118726;27;20047;-78
2023/05/28 00:17:34;;;;;;;7.63;3.20;;;11.80;99.90;;;;;;5137695;27;20050;-77
2023/05/28 00:20:00;;;;;;;9.88;3.25;;;11.80;99.90;;;;;;5118799;27;20039;-78
2023/05/28 00:22:26;;;;;;;8.30;3.10;;;11.80;99.90;;;;;;5136970;27;20043;-78
2023/05/28 00:24:52;;;;;;;12.57;3.70;;;11.80;99.90;;;;;;5137241;27;20395;-78
2023/05/28 00:27:17;;;;;;;8.57;3.25;;;11.80;99.90;;;;;;5137544;27;20130;-78
2023/05/28 00:29:43;;;;;;;10.85;3.83;;;11.80;99.90;;;;;;5136856;27;20414;-78
2023/05/28 00:32:09;;;;;;;13.05;4.03;;;11.80;99.90;;;;;;5101873;27;20051;-78
2023/05/28 00:34:35;;;;;;;11.52;3.63;;;11.70;99.90;;;;;;5118623;27;20042;-78
2023/05/28 00:37:00;;;;;;;10.07;3.15;;;11.70;99.90;;;;;;5118934;27;20051;-78
2023/05/28 00:39:26;;;;;;;9.07;3.72;;;11.80;99.90;;;;;;5118932;27;20039;-78
2023/05/28 00:42:07;;;;;;;10.75;3.75;;;11.80;99.90;;;;;;5136533;27;20054;-78
2023/05/28 00:44:33;;;;;;;7.50;3.50;;;11.80;99.90;;;;;;5137345;27;20424;-78
2023/05/28 00:47:00;;;;;;;7.90;3.45;;;11.80;99.90;;;;;;5136537;27;20117;-78
2023/05/28 00:49:26;;;;;;;7.88;3.88;;;11.80;99.90;;;;;;5136507;27;20043;-77
2023/05/28 00:51:54;;;;;;;8.00;3.83;;;11.90;99.90;;;;;;5136468;27;20565;-78
2023/05/28 00:54:21;;;;;;;7.60;3.38;;;11.90;99.90;;;;;;5136765;27;20051;-77
2023/05/28 00:56:48;;;;;;;9.60;3.60;;;11.90;99.90;;;;;;5118266;27;20054;-77
2023/05/28 00:59:13;;;;;;;9.50;3.50;;;11.90;99.90;;;;;;5118148;27;20087;-78
2023/05/28 01:01:40;;;;;;;8.50;4.03;;;11.90;99.90;;;;;;5136287;27;20082;-78
2023/05/28 01:04:05;;;;;;;8.73;3.83;;;11.90;99.90;;;;;;5136440;27;20107;-78
2023/05/28 01:06:31;;;;;;;10.60;4.38;;;11.90;99.90;;;;;;5118079;27;20471;-78
2023/05/28 01:08:57;;;;;;;7.63;3.72;;;12.00;99.90;;;;;;5135809;27;20043;-78
2023/05/28 01:11:24;;;;;;;8.00;3.90;;;12.00;99.90;;;;;;5136085;27;20039;-79
2023/05/28 01:13:51;;;;;;;12.13;3.58;;;12.00;99.90;;;;;;5117707;27;20035;-78
2023/05/28 01:16:17;;;;;;;7.78;3.63;;;11.90;99.90;;;;;;5117871;27;20109;-78
2023/05/28 01:18:44;;;;;;;9.93;4.00;;;11.90;99.90;;;;;;5135952;27;20074;-77
2023/05/28 01:21:10;;;;;;;8.90;3.80;;;11.90;99.90;;;;;;5135849;27;20479;-77
2023/05/28 01:23:47;;;;;;;12.02;4.05;;;11.80;99.90;;;;;;5135836;27;20039;-77
2023/05/28 01:26:14;;;;;;;12.18;4.28;;;11.80;99.90;;;;;;5136000;27;20055;-77
2023/05/28 01:28:44;;;;;;;10.15;3.65;;;11.80;99.90;;;;;;5135734;27;20131;-77
2023/05/28 01:31:11;;;;;;;10.30;3.92;;;11.80;99.90;;;;;;5135656;27;20122;-77
2023/05/28 01:33:38;;;;;;;9.73;3.80;;;11.80;99.90;;;;;;5135663;27;20070;-78
2023/05/28 01:36:10;;;;;;;8.65;3.28;;;11.80;99.90;;;;;;5135535;27;20054;-78
2023/05/28 01:38:37;;;;;;;10.02;3.38;;;11.80;99.90;;;;;;5135605;27;20129;-78
2023/05/28 01:41:04;;;;;;;10.00;3.50;;;11.80;99.90;;;;;;5135192;27;20051;-78
2023/05/28 01:43:30;;;;;;;6.53;3.42;;;11.80;99.90;;;;;;5135274;27;20051;-78
2023/05/28 01:45:56;;;;;;;10.82;3.33;;;11.80;99.90;;;;;;5117208;27;20375;-78
2023/05/28 01:48:23;;;;;;;9.43;3.63;;;11.80;99.90;;;;;;5100705;27;20129;-78
2023/05/28 01:50:49;;;;;;;8.00;4.30;;;11.80;99.90;;;;;;5117287;27;20046;-78
2023/05/28 01:53:14;;;;;;;7.95;3.63;;;11.80;99.90;;;;;;5136078;27;20039;-77
2023/05/28 01:55:40;;;;;;;9.77;3.25;;;11.90;99.90;;;;;;5135764;27;20043;-77
2023/05/28 01:58:06;;;;;;;11.85;4.72;;;11.80;99.90;;;;;;5135285;27;20493;-77
2023/05/28 02:00:35;;;;;;;9.32;3.60;;;11.90;99.90;;;;;;5100147;27;20044;-78
2023/05/28 02:03:00;;;;;;;7.55;3.70;;;11.90;99.90;;;;;;5134972;27;20043;-78
2023/05/28 02:05:26;;;;;;;9.27;3.47;;;11.90;99.90;;;;;;5116927;27;20072;-78
2023/05/28 02:07:53;;;;;;;9.90;3.47;;;11.90;99.90;;;;;;5117860;27;20051;-78
2023/05/28 02:10:19;;;;;;;10.73;3.75;;;11.90;99.90;;;;;;5135002;27;20054;-77
2023/05/28 02:12:45;;;;;;;9.07;3.75;;;11.90;99.90;;;;;;5134910;27;20051;-78
2023/05/28 02:15:11;;;;;;;12.10;3.83;;;11.90;99.90;;;;;;5116643;27;20047;-79
2023/05/28 02:17:36;;;;;;;9.52;3.22;;;11.90;99.90;;;;;;5134999;27;20399;-78
2023/05/28 02:20:02;;;;;;;9.45;3.38;;;11.90;99.90;;;;;;5117155;28;20035;-78
2023/05/28 02:22:28;;;;;;;11.10;3.90;;;11.90;99.90;;;;;;5099553;28;20047;-78
2023/05/28 02:24:54;;;;;;;8.60;3.20;;;11.90;99.90;;;;;;5135021;27;20368;-78
2023/05/28 02:27:19;;;;;;;10.43;3.67;;;11.90;99.90;;;;;;5135638;27;20062;-78
2023/05/28 02:29:46;;;;;;;8.80;3.55;;;11.80;99.90;;;;;;5134738;27;20043;-78
2023/05/28 02:32:12;;;;;;;8.55;3.13;;;11.90;99.90;;;;;;5116582;28;20086;-78
2023/05/28 02:34:38;;;;;;;7.85;3.63;;;11.80;99.90;;;;;;5116399;28;20078;-78
2023/05/28 02:37:04;;;;;;;10.13;3.88;;;11.90;99.90;;;;;;5116382;28;20039;-78
2023/05/28 02:39:29;;;;;;;8.88;3.03;;;11.90;99.90;;;;;;5134622;28;20039;-77
2023/05/28 02:41:55;;;;;;;9.85;3.67;;;11.90;99.90;;;;;;5116541;28;20130;-78
2023/05/28 02:44:22;;;;;;;10.88;3.15;;;11.80;99.90;;;;;;5116233;28;20043;-78
2023/05/28 02:46:47;;;;;;;11.35;3.47;;;11.90;99.90;;;;;;5116803;28;20054;-78
2023/05/28 02:49:13;;;;;;;8.55;3.15;;;11.90;99.90;;;;;;5116496;28;20043;-78
2023/05/28 02:51:39;;;;;;;9.40;3.60;;;11.90;99.90;;;;;;5116633;28;20047;-78
2023/05/28 02:54:05;;;;;;;10.18;4.20;;;11.90;99.90;;;;;;5134537;28;20431;-79
2023/05/28 02:56:31;;;;;;;9.60;3.03;;;11.90;99.90;;;;;;5134536;28;20050;-78
2023/05/28 02:58:56;;;;;;;7.90;3.60;;;11.90;99.90;;;;;;5134455;28;20068;-78
2023/05/28 03:01:22;;;;;;;9.05;3.42;;;11.80;99.90;;;;;;5135245;27;20143;-77
2023/05/28 03:03:47;;;;;;;12.75;3.47;;;11.90;99.90;;;;;;5119945;27;20050;-78
2023/05/28 03:06:14;;;;;;;12.07;3.58;;;11.90;99.90;;;;;;5103162;27;20043;-78
2023/05/28 03:08:39;;;;;;;12.30;3.53;;;11.90;99.90;;;;;;5120217;27;20047;-78
2023/05/28 03:11:05;;;;;;;13.15;4.63;;;11.90;99.90;;;;;;5120171;27;20050;-77
2023/05/28 03:13:30;;;;;;;8.40;3.60;;;11.90;99.90;;;;;;5138293;27;20092;-78
2023/05/28 03:15:58;;;;;;;8.82;3.30;;;11.90;99.90;;;;;;5120260;27;20058;-78
2023/05/28 03:18:24;;;;;;;9.63;2.88;;;11.90;99.90;;;;;;5138397;27;20047;-77
2023/05/28 03:20:50;;;;;;;9.57;3.00;;;11.90;99.90;;;;;;5120548;27;20415;-77
2023/05/28 03:23:16;;;;;;;6.40;2.95;;;11.80;99.90;;;;;;5138135;27;20122;-77
2023/05/28 03:25:42;;;;;;;8.15;3.15;;;11.80;99.90;;;;;;5119498;27;20090;-77
2023/05/28 03:28:08;;;;;;;6.00;3.38;;;11.80;99.90;;;;;;5138149;27;20047;-78
2023/05/28 03:30:33;;;;;;;6.50;3.13;;;11.70;99.90;;;;;;5138065;27;20526;-78
2023/05/28 03:32:59;;;;;;;7.60;3.35;;;11.80;99.90;;;;;;5137952;27;20099;-78
2023/05/28 03:35:25;;;;;;;9.32;3.70;;;11.80;99.90;;;;;;5120106;27;20082;-78
2023/05/28 03:37:50;;;;;;;7.68;2.90;;;11.80;99.90;;;;;;5119630;27;20425;-78
2023/05/28 03:40:16;;;;;;;7.05;2.53;;;11.80;99.90;;;;;;5119767;27;20101;-77
2023/05/28 03:42:42;;;;;;;7.63;3.05;;;11.80;99.90;;;;;;5119912;27;20399;-78
2023/05/28 03:45:08;;;;;;;8.38;3.28;;;11.80;99.90;;;;;;5120373;27;20043;-78
2023/05/28 03:47:35;;;;;;;8.65;3.38;;;11.80;99.90;;;;;;5137774;27;20039;-78
2023/05/28 03:50:01;;;;;;;7.57;3.13;;;11.80;99.90;;;;;;5119522;27;20079;-78
2023/05/28 03:52:27;;;;;;;9.65;3.50;;;11.80;99.90;;;;;;5137668;27;20139;-78
2023/05/28 03:54:53;;;;;;;9.38;2.95;;;11.80;99.90;;;;;;5137619;27;20043;-78
2023/05/28 03:57:19;;;;;;;7.07;2.97;;;11.80;99.90;;;;;;5119410;27;20058;-78
2023/05/28 03:59:44;;;;;;;6.32;2.40;;;11.80;99.90;;;;;;5137475;27;20092;-78
2023/05/28 04:02:10;;;;;;;5.07;2.13;;;11.80;99.90;;;;;;5137374;27;20039;-78
2023/05/28 04:04:36;;;;;;;6.45;2.90;;;11.80;99.90;;;;;;5119124;27;20035;-77
2023/05/28 04:07:01;;;;;;;7.68;3.15;;;11.80;99.90;;;;;;5136988;27;20054;-78
2023/05/28 04:09:27;;;;;;;7.32;2.67;;;11.80;99.90;;;;;;5119122;27;20138;-78
2023/05/28 04:11:53;;;;;;;7.55;2.83;;;11.80;99.90;;;;;;5137291;27;20082;-78
2023/05/28 04:14:20;;;;;;;9.63;3.13;;;11.80;99.90;;;;;;5136338;27;20122;-78
2023/05/28 04:16:46;;;;;;;10.20;2.90;;;11.80;99.90;;;;;;5119024;27;20543;-78
2023/05/28 04:19:11;;;;;;;9.90;2.42;;;11.80;99.90;;;;;;5137108;27;20048;-78
2023/05/28 04:21:37;;;;;;;10.35;2.83;;;11.80;99.90;;;;;;5118797;27;20394;-78
2023/05/28 04:24:03;;;;;;;9.52;2.90;;;11.80;99.90;;;;;;5136941;27;20039;-78
2023/05/28 04:26:29;;;;;;;8.05;2.83;;;11.80;99.90;;;;;;5137043;27;20055;-77
2023/05/28 04:28:55;;;;;;;8.73;2.75;;;11.90;99.90;;;;;;5101822;27;20524;-77
2023/05/28 04:31:21;;;;;;;8.73;2.75;;;11.90;99.90;;;;;;5118615;27;20043;-77
2023/05/28 04:33:46;;;;;;;7.38;2.90;;;11.90;99.90;;;;;;5136858;27;20046;-78
2023/05/28 04:36:13;;;;;;;10.43;3.17;;;11.90;99.90;;;;;;5136816;27;20066;-77
2023/05/28 04:38:39;;;;;;;8.32;3.33;;;11.90;99.90;;;;;;5118481;27;20122;-77
2023/05/28 04:41:05;;;;;;;6.20;2.85;;;11.90;99.90;;;;;;5118616;27;20498;-77
2023/05/28 04:43:32;;;;;;;9.43;2.83;;;11.90;99.90;;;;;;5117972;27;20188;-78
2023/05/28 04:45:58;;;;;;;7.75;2.53;;;12.00;99.90;;;;;;5136684;27;20125;-78
2023/05/28 04:48:27;;;;;;;6.70;2.38;;;12.00;99.90;;;;;;5118469;27;20542;-77
2023/05/28 04:50:53;;;;;;;5.90;2.85;;;12.00;99.90;;;;;;5119178;27;20050;-77
2023/05/28 04:53:19;;;;;;;8.73;3.03;;;12.10;99.90;;;;;;5136505;27;20170;-78
2023/05/28 04:55:45;;;;;;;7.57;2.47;;;12.10;99.90;;;;;;5118205;27;20125;-77
2023/05/28 04:58:11;;;;;;;6.68;2.80;;;12.10;99.90;;;;;;5118110;27;20046;-77
2023/05/28 05:00:37;;;;;;;5.65;3.00;;;12.10;99.90;;;;;;5118211;27;20074;-77
2023/05/28 05:03:03;;;;;;;10.57;3.08;;;12.20;99.90;;;;;;5117681;27;20039;-77
2023/05/28 05:05:29;;;;;;;10.35;2.20;;;12.20;99.90;;;;;;5136237;27;20096;-78
2023/05/28 05:07:55;;;;;;;6.72;2.38;;;12.30;99.90;;;;;;5136223;27;20047;-77
2023/05/28 05:10:20;;;;;;;6.38;3.00;;;12.30;99.90;;;;;;5136085;27;20043;-78
2023/05/28 05:12:46;;;;;;;7.97;2.42;;;12.40;99.90;;;;;;5117827;27;20061;-78
2023/05/28 05:15:12;;;;;;;6.65;2.63;;;12.40;99.90;;;;;;5117519;27;20481;-77
2023/05/28 05:17:37;;;;;;;7.15;2.85;;;12.40;99.90;;;;;;5135999;27;20051;-77
2023/05/28 05:20:07;;;;;;;8.23;2.67;;;12.50;99.90;;;;;;5136231;27;20493;-77
2023/05/28 05:22:32;;;;;;;7.93;2.95;;;12.50;99.90;;;;;;5135796;27;20081;-77
2023/05/28 05:24:58;;;;;;;10.43;3.25;;;12.50;99.90;;;;;;5117817;27;20086;-76
2023/05/28 05:27:24;;;;;;;9.60;2.85;;;12.60;99.90;;;;;;5136068;27;20409;-77
2023/05/28 05:29:49;;;;;;;8.90;2.80;;;12.60;99.90;;;;;;5135744;27;20550;-77
2023/05/28 05:32:15;;;;;;;10.85;2.90;;;12.70;99.90;;;;;;5135684;27;20058;-77
2023/05/28 05:34:41;;;;;;;10.10;3.10;;;12.70;99.90;;;;;;5135628;27;20043;-77
2023/05/28 05:37:07;;;;;;;8.80;3.22;;;12.80;99.90;;;;;;5117465;27;20098;-78
2023/05/28 05:39:32;;;;;;;10.27;2.60;;;12.80;99.90;;;;;;5135568;27;20050;-78
2023/05/28 05:41:59;;;;;;;8.07;2.58;;;12.80;99.90;;;;;;5135532;27;20536;-77
2023/05/28 05:44:25;;;;;;;7.50;2.50;;;12.80;99.90;;;;;;5117745;27;20172;-76
2023/05/28 05:46:50;;;;;;;7.03;2.60;;;12.80;99.90;;;;;;5135471;27;20122;-75
2023/05/28 05:49:16;;;;;;;9.50;2.38;;;12.80;99.90;;;;;;5135903;27;20042;-77
2023/05/28 05:51:42;;;;;;;9.15;2.95;;;12.80;99.90;;;;;;5135369;27;20046;-77
2023/05/28 05:54:07;;;;;;;9.82;2.45;;;12.90;99.90;;;;;;5117144;27;20049;-77
2023/05/28 05:56:34;;;;;;;6.05;2.85;;;12.90;99.90;;;;;;5135245;27;20101;-76
2023/05/28 05:59:00;;;;;;;8.38;2.78;;;12.90;99.90;;;;;;5117414;27;20055;-76
2023/05/28 06:01:25;;;;;;;6.70;3.03;;;12.90;99.90;;;;;;5135189;27;20109;-76
2023/05/28 06:03:52;;;;;;;5.95;2.63;;;13.00;99.90;;;;;;5117349;27;20047;-77
2023/05/28 06:06:18;;;;;;;6.35;2.80;;;13.00;99.90;;;;;;5135675;27;20050;-75
2023/05/28 06:08:43;;;;;;;8.38;3.58;;;13.00;99.90;;;;;;5135037;27;20082;-76
2023/05/28 06:11:09;;;;;;;9.95;3.60;;;13.10;99.90;;;;;;5116719;27;20081;-76
2023/05/28 06:13:36;;;;;;;8.48;3.00;;;13.00;99.90;;;;;;5135518;27;20467;-76
2023/05/28 06:16:06;;;;;;;9.20;3.65;;;13.10;99.90;;;;;;5117428;27;20039;-76
2023/05/28 06:18:32;;;;;;;7.38;2.90;;;13.10;99.90;;;;;;5099739;27;20089;-76
2023/05/28 06:20:58;;;;;;;5.93;2.95;;;13.10;99.90;;;;;;5134862;27;20086;-78
2023/05/28 06:23:23;;;;;;;8.98;2.90;;;13.10;99.90;;;;;;5134867;27;20138;-78
2023/05/28 06:25:50;;;;;;;9.07;2.72;;;13.20;99.90;;;;;;5116476;28;20053;-76
2023/05/28 06:28:15;;;;;;;7.70;2.65;;;13.30;99.90;;;;;;5134834;27;20062;-78
2023/05/28 06:30:41;;;;;;;5.15;2.38;;;13.20;99.90;;;;;;5116538;28;20372;-76
2023/05/28 06:33:08;;;;;;;7.53;2.65;;;13.30;99.90;;;;;;5116468;28;20046;-77
2023/05/28 06:35:34;;;;;;;6.78;3.00;;;13.40;99.90;;;;;;5134687;27;20043;-76
2023/05/28 06:38:00;;;;;;;5.95;2.63;;;13.40;99.90;;;;;;5134474;28;20119;-77
2023/05/28 06:40:26;;;;;;;7.40;2.70;;;13.40;99.90;;;;;;5135559;28;20148;-77
2023/05/28 06:42:52;;;;;;;7.45;3.15;;;13.50;99.90;;;;;;5135113;28;20043;-75
2023/05/28 06:45:18;;;;;;;5.93;2.65;;;13.50;99.90;;;;;;5135380;28;20042;-76
2023/05/28 06:47:44;;;;;;;8.50;3.28;;;13.60;99.90;;;;;;5134680;28;20440;-76
2023/05/28 06:50:10;;;;;;;7.57;2.78;;;13.60;99.90;;;;;;5116985;28;20046;-76
2023/05/28 06:52:36;;;;;;;7.30;3.03;;;13.70;99.90;;;;;;5116351;28;20129;-77
2023/05/28 06:55:02;;;;;;;12.18;3.33;;;13.70;99.90;;;;;;5134207;28;20092;-77
2023/05/28 06:57:28;;;;;;;7.88;3.05;;;13.70;99.90;;;;;;5116438;28;20051;-76
2023/05/28 06:59:54;;;;;;;10.50;3.08;;;13.80;99.90;;;;;;5116444;28;20065;-76
2023/05/28 07:02:20;;;;;;;8.52;3.00;;;13.80;99.90;;;;;;5135037;28;20043;-77
2023/05/28 07:04:46;;;;;;;6.80;3.00;;;13.90;99.90;;;;;;5117196;28;20099;-75
2023/05/28 07:07:11;;;;;;;7.18;2.47;;;13.90;99.90;;;;;;5134408;28;20051;-76
2023/05/28 07:09:37;;;;;;;7.47;2.35;;;13.90;99.90;;;;;;5134033;28;20047;-77
2023/05/28 07:12:03;;;;;;;6.13;2.35;;;14.00;99.90;;;;;;5116920;28;20054;-76
2023/05/28 07:14:28;;;;;;;7.13;2.30;;;14.00;99.90;;;;;;5116349;28;20179;-75
2023/05/28 07:16:55;;;;;;;7.03;2.28;;;14.10;99.90;;;;;;5134639;28;20459;-77
2023/05/28 07:19:20;;;;;;;4.68;2.67;;;14.10;99.90;;;;;;5134296;28;20130;-74
2023/05/28 07:21:46;;;;;;;5.38;2.40;;;14.20;99.90;;;;;;5134335;28;20443;-76
2023/05/28 07:24:12;;;;;;;9.93;2.88;;;14.20;99.90;;;;;;5134196;28;20177;-75
2023/05/28 07:26:38;;;;;;;9.35;2.58;;;14.20;99.90;;;;;;5098776;28;20109;-75
2023/05/28 07:29:04;;;;;;;5.40;2.50;;;14.30;99.90;;;;;;5133886;28;20403;-75
2023/05/28 07:31:31;;;;;;;4.78;1.92;;;14.40;99.90;;;;;;5134809;28;20046;-76
2023/05/28 07:33:57;;;;;;;5.57;2.45;;;14.40;99.90;;;;;;5099087;28;20047;-75
2023/05/28 07:36:23;;;;;;;6.85;2.60;;;14.40;99.90;;;;;;5134181;28;20398;-75
2023/05/28 07:38:48;;;;;;;5.95;2.17;;;14.50;99.90;;;;;;5134090;28;20122;-77
2023/05/28 07:41:14;;;;;;;5.25;2.97;;;14.50;99.90;;;;;;5115821;28;20126;-75
2023/05/28 07:43:40;;;;;;;6.75;1.92;;;14.60;99.90;;;;;;5115759;28;20156;-76
2023/05/28 07:46:06;;;;;;;6.93;1.98;;;14.60;99.90;;;;;;5134114;28;20083;-75
2023/05/28 07:48:32;;;;;;;4.68;1.85;;;14.70;99.90;;;;;;5135489;27;20053;-75
2023/05/28 07:50:58;;;;;;;4.93;2.05;;;14.80;99.90;;;;;;5119857;27;20047;-75
2023/05/28 07:53:24;;;;;;;6.00;2.30;;;14.80;99.90;;;;;;5137662;27;20078;-75
2023/05/28 07:55:50;;;;;;;4.28;2.60;;;14.90;99.90;;;;;;5119802;27;20046;-75
2023/05/28 07:58:16;;;;;;;8.25;2.22;;;14.90;99.90;;;;;;5137569;27;20047;-75
2023/05/28 08:00:42;;;;;;;4.97;2.35;;;15.00;99.90;;;;;;5137862;27;20149;-76
2023/05/28 08:03:11;;;;;;;5.55;2.20;;;15.00;99.90;;;;;;5137947;27;20083;-76
2023/05/28 08:05:37;;;;;;;5.20;2.10;;;15.00;99.90;;;;;;5119387;27;20047;-76
2023/05/28 08:08:02;;;;;;;6.25;2.15;;;15.10;99.90;;;;;;5137366;27;20542;-75
2023/05/28 08:10:29;;;;;;;5.88;2.40;;;15.20;99.90;;;;;;5137326;27;20047;-77
2023/05/28 08:12:55;;;;;;;4.10;2.30;;;15.20;99.90;;;;;;5102184;27;20039;-79
2023/05/28 08:15:20;;;;;;;4.45;1.98;;;15.20;99.90;;;;;;5137251;27;20051;-76
2023/05/28 08:17:46;;;;;;;7.30;2.63;;;15.30;99.90;;;;;;5118976;27;20054;-76
2023/05/28 08:20:12;;;;;;;6.38;2.13;;;15.40;99.90;;;;;;5137129;27;20088;-76
2023/05/28 08:22:38;;;;;;;5.65;2.60;;;15.50;99.90;;;;;;5137074;27;20040;-76
2023/05/28 08:25:04;;;;;;;3.80;1.90;;;15.50;99.90;;;;;;5136664;27;20055;-77
2023/05/28 08:27:35;;;;;;;4.18;1.88;;;15.60;99.90;;;;;;5137095;27;20055;-76
2023/05/28 08:30:01;;;;;;;4.07;2.03;;;15.60;99.90;;;;;;5119153;27;20386;-77
2023/05/28 08:32:27;;;;;;;4.43;2.00;;;15.70;99.90;;;;;;5136909;27;20042;-76
2023/05/28 08:34:52;;;;;;;4.78;1.92;;;15.70;99.90;;;;;;5137092;27;20122;-74
2023/05/28 08:37:18;;;;;;;4.68;2.65;;;15.70;99.90;;;;;;5137179;27;20047;-75
2023/05/28 08:39:44;;;;;;;5.70;2.65;;;15.80;99.90;;;;;;5118728;27;20096;-77
2023/05/28 08:42:09;;;;;;;4.18;2.05;;;15.80;99.90;;;;;;5136974;27;20047;-76
2023/05/28 08:44:35;;;;;;;5.40;2.03;;;15.80;99.90;;;;;;5136502;27;20493;-74
2023/05/28 08:47:01;;;;;;;4.40;2.17;;;15.90;99.90;;;;;;5101493;27;20086;-76
2023/05/28 08:49:59;;;;;;;4.35;2.05;;;16.00;99.90;;;;;;5118467;27;20121;-75
2023/05/28 08:52:25;;;;;;;3.47;2.00;;;16.10;99.90;;;;;;5120486;27;20118;-76
2023/05/28 08:54:51;;;;;;;5.25;2.30;;;16.10;99.90;;;;;;5136471;27;20051;-78
2023/05/28 08:57:18;;;;;;;5.03;2.10;;;16.10;99.90;;;;;;5136399;27;20054;-75
2023/05/28 08:59:45;;;;;;;5.55;2.08;;;16.10;99.90;;;;;;5136085;27;20043;-77
2023/05/28 09:02:12;;;;;;;4.15;2.28;;;16.20;99.90;;;;;;5118403;27;20047;-76
2023/05/28 09:04:38;;;;;;;4.80;2.28;;;16.30;99.90;;;;;;5101406;27;20466;-77
2023/05/28 09:07:05;;;;;;;5.18;2.38;;;16.30;99.90;;;;;;5135879;27;20054;-75
2023/05/28 09:09:32;;;;;;;3.47;1.98;;;16.30;99.90;;;;;;5136257;27;20047;-76
2023/05/28 09:12:05;;;;;;;5.95;2.42;;;16.40;99.90;;;;;;5136118;27;20051;-76
2023/05/28 09:14:36;;;;;;;5.80;2.50;;;16.40;99.90;;;;;;5136949;27;20431;-76
2023/05/28 09:17:02;;;;;;;3.92;1.83;;;16.50;99.90;;;;;;5136108;27;20047;-77
2023/05/28 09:19:28;;;;;;;5.95;2.72;;;16.60;99.90;;;;;;5136027;27;20170;-76
2023/05/28 09:21:57;;;;;;;3.60;2.13;;;16.60;99.90;;;;;;5136811;27;20104;-76
2023/05/28 09:24:26;;;;;;;4.60;2.28;;;16.70;99.90;;;;;;5117801;27;20462;-76
2023/05/28 09:26:56;;;;;;;3.95;1.83;;;16.70;99.90;;;;;;5135844;27;20475;-77
2023/05/28 09:29:26;;;;;;;6.78;2.47;;;16.80;99.90;;;;;;5117542;27;20046;-78
2023/05/28 09:31:56;;;;;;;3.88;2.28;;;16.90;99.90;;;;;;5135742;27;20099;-77
2023/05/28 09:34:26;;;;;;;5.07;2.30;;;16.90;99.90;;;;;;5136244;27;20047;-77
2023/05/28 09:36:52;;;;;;;6.10;2.78;;;17.00;99.90;;;;;;5135710;27;20051;-78
2023/05/28 09:39:18;;;;;;;6.38;2.58;;;17.10;99.90;;;;;;5135552;27;20039;-76
2023/05/28 09:41:46;;;;;;;5.25;2.60;;;17.10;99.90;;;;;;5117332;27;20039;-76
2023/05/28 09:44:12;;;;;;;3.60;2.10;;;17.10;99.90;;;;;;5135420;27;20070;-79
2023/05/28 09:46:38;;;;;;;5.47;2.22;;;17.20;99.90;;;;;;5135470;27;20046;-78
2023/05/28 09:49:04;;;;;;;5.22;2.40;;;17.30;99.90;;;;;;5100315;27;20039;-75
2023/05/28 09:51:31;;;;;;;4.72;2.17;;;17.30;98.70;;;;;;5135381;27;20043;-77
2023/05/28 09:54:03;;;;;;;5.78;2.08;;;17.30;98.20;;;;;;5135347;27;20050;-76
2023/05/28 09:56:32;;;;;;;6.03;2.63;;;17.40;98.30;;;;;;5135293;27;20130;-75
2023/05/28 09:59:00;;;;;;;4.28;2.53;;;17.40;97.20;;;;;;5136017;27;20047;-77
2023/05/28 10:01:31;;;;;;;3.95;2.42;;;17.50;96.50;;;;;;5135221;27;20050;-75
2023/05/28 10:04:13;;;;;;;4.10;2.03;;;17.50;96.70;;;;;;5117181;27;20063;-76
2023/05/28 10:06:42;;;;;;;4.97;2.38;;;17.60;97.10;;;;;;5117050;27;20055;-80
2023/05/28 10:09:09;;;;;;;5.82;2.65;;;17.60;97.20;;;;;;5117027;27;20058;-76
2023/05/28 10:11:43;;;;;;;4.82;2.30;;;17.60;97.20;;;;;;5134405;27;20047;-77
2023/05/28 10:14:10;;;;;;;3.85;2.38;;;17.70;96.60;;;;;;5135678;27;20043;-77
2023/05/28 10:16:37;;;;;;;5.00;2.83;;;17.80;95.80;;;;;;5135592;27;20055;-77
2023/05/28 10:19:02;;;;;;;5.20;2.83;;;17.80;95.60;;;;;;5135981;27;20057;-76
2023/05/28 10:21:29;;;;;;;5.00;2.80;;;17.90;95.10;;;;;;5134540;27;20047;-78
2023/05/28 10:23:56;;;;;;;4.70;2.53;;;17.90;95.30;;;;;;5134753;27;20047;-77
2023/05/28 10:26:23;;;;;;;4.75;3.20;;;17.90;94.40;;;;;;5116141;28;20478;-78
2023/05/28 10:28:56;;;;;;;5.40;2.90;;;18.00;94.70;;;;;;5116637;27;20050;-75
2023/05/28 10:31:22;;;;;;;5.38;3.22;;;18.10;94.40;;;;;;5134797;27;20043;-77
2023/05/28 10:33:48;;;;;;;6.15;3.25;;;18.10;93.80;;;;;;5116959;28;20099;-76
2023/05/28 10:36:15;;;;;;;6.78;3.60;;;18.10;93.30;;;;;;5117536;28;20039;-75
2023/05/28 10:39:06;;;;;;;6.53;3.85;;;18.20;91.90;;;;;;5117308;28;20423;-76
2023/05/28 10:41:33;;;;;;;7.22;3.58;;;18.20;91.80;;;;;;5134001;28;20059;-75
2023/05/28 10:44:06;;;;;;;6.75;4.03;;;18.30;90.40;;;;;;5134534;28;20089;-75
2023/05/28 10:46:36;;;;;;;7.00;3.30;;;18.30;87.40;;;;;;5134683;28;20051;-76
2023/05/28 10:49:07;;;;;;;6.55;3.70;;;18.30;84.10;;;;;;5134607;28;20086;-77
2023/05/28 10:51:56;;;;;;;6.07;3.17;;;18.40;85.10;;;;;;5135149;28;20096;-79
2023/05/28 10:54:52;;;;;;;4.85;2.72;;;18.40;87.60;;;;;;5134287;28;20122;-77
2023/05/28 10:57:20;;;;;;;4.95;2.60;;;18.40;84.10;;;;;;5133848;28;20509;-77
2023/05/28 10:59:52;;;;;;;5.15;2.55;;;18.50;82.40;;;;;;5135101;28;20126;-77
2023/05/28 11:02:25;;;;;;;5.05;2.33;;;18.50;83.00;;;;;;5135363;28;20043;-76
2023/05/28 11:05:00;;;;;;;5.53;2.75;;;18.60;85.90;;;;;;5134514;28;20054;-79
2023/05/28 11:07:33;;;;;;;4.65;2.72;;;18.70;87.40;;;;;;5134516;28;20051;-77
2023/05/28 11:10:00;;;;;;;6.20;2.58;;;18.70;87.40;;;;;;5135243;28;20062;-78
2023/05/28 11:12:30;;;;;;;3.30;2.10;;;18.80;87.20;;;;;;5134452;28;20047;-78
2023/05/28 11:14:56;;;;;;;5.28;2.08;;;18.80;87.10;;;;;;5134325;28;20092;-77
2023/05/28 11:17:22;;;;;;;4.35;2.17;;;18.90;86.00;;;;;;5116721;28;20050;-78
2023/05/28 11:19:50;;;;;;;5.72;1.95;;;18.90;86.40;;;;;;5116026;28;20544;-77
2023/05/28 11:22:17;;;;;;;3.97;1.80;;;18.90;86.80;;;;;;5116825;27;20096;-76
2023/05/28 11:24:58;;;;;;;3.92;1.80;;;18.90;86.60;;;;;;5138808;27;20344;-76
2023/05/28 11:27:26;;;;;;;2.85;1.40;;;19.00;87.50;;;;;;5120269;27;20082;-76
2023/05/28 11:29:55;;;;;;;4.55;1.50;;;19.10;87.90;;;;;;5120467;27;20368;-77
2023/05/28 11:32:21;;;;;;;4.85;1.50;;;19.10;89.10;;;;;;5138888;27;20050;-76
2023/05/28 11:34:50;;;;;;;5.82;1.20;;;19.10;89.10;;;;;;5138544;27;20470;-76
2023/05/28 11:37:21;;;;;;;3.13;1.38;;;19.10;88.80;;;;;;5119816;27;20043;-77
2023/05/28 11:39:55;;;;;;;3.50;1.40;;;19.10;88.60;;;;;;5137970;27;20047;-75
2023/05/28 11:42:21;;;;;;;4.70;1.17;;;19.10;89.10;;;;;;5137894;27;20048;-80
2023/05/28 11:44:48;;;;;;;3.28;1.60;;;19.20;88.50;;;;;;5119663;27;20070;-80
2023/05/28 11:47:15;;;;;;;3.13;1.38;;;19.10;89.40;;;;;;5137777;27;20043;-77
2023/05/28 11:49:41;;;;;;;3.47;1.40;;;19.20;89.70;;;;;;5119718;27;20078;-77
2023/05/28 11:52:15;;;;;;;4.43;1.30;;;19.20;90.00;;;;;;5137658;27;20039;-81
2023/05/28 11:54:43;;;;;;;6.30;1.30;;;19.20;90.60;;;;;;5137664;27;20051;-77
2023/05/28 11:57:09;;;;;;;1.85;1.10;;;19.30;90.60;;;;;;5137658;27;20047;-79
2023/05/28 11:59:36;;;;;;;3.22;1.40;;;19.30;90.90;;;;;;5119208;27;20043;-77
2023/05/28 12:02:16;;;;;;;2.33;1.02;;;19.30;91.10;;;;;;5137485;27;20050;-79
2023/05/28 12:04:59;;;;;;;2.80;1.27;;;19.40;91.30;;;;;;5137349;27;20192;-77
2023/05/28 12:07:28;;;;;;;;;;;19.40;91.20;;;;;;5137784;27;20039;-78
2023/05/28 12:10:04;;;;;;;5.78;1.45;;;19.40;91.80;;;;;;5119560;27;19919;-78
2023/05/28 12:12:31;;;;;;;4.03;1.40;;;19.50;91.80;;;;;;5137325;27;20080;-77
2023/05/28 12:15:00;;;;;;;6.25;1.75;;;19.50;92.30;;;;;;5137315;27;20538;-77
2023/05/28 12:17:26;;;;;;;4.10;1.60;;;19.50;92.40;;;;;;5119501;27;20050;-78
2023/05/28 12:19:52;;;;;;;4.32;1.88;;;19.50;93.70;;;;;;5118829;27;20039;-77
2023/05/28 12:22:18;;;;;;;5.78;1.90;;;19.50;95.70;;;;;;5137952;27;20096;-80
2023/05/28 12:24:53;;;;;;;7.22;2.25;;;19.50;97.70;;;;;;5137024;27;20043;-77
2023/05/28 12:27:20;;;;;;;4.43;2.28;;;19.50;99.40;;;;;;5114917;28;20062;-80
2023/05/28 12:29:46;;;;;;;5.00;1.80;;;19.40;99.90;;;;;;5116429;28;20055;-78
2023/05/28 12:32:11;;;;;;;4.57;1.80;;;19.40;99.90;;;;;;5116099;28;20118;-81
2023/05/28 12:34:37;;;;;;;5.35;1.77;;;19.40;99.90;;;;;;5114775;28;20123;-78
2023/05/28 12:37:04;;;;;;;8.93;2.70;;;19.40;99.90;;;;;;5116753;28;20048;-78
2023/05/28 12:39:30;;;;;;;7.00;2.40;;;19.40;99.90;;;;;;5115782;28;20424;-77
2023/05/28 12:41:55;;;;;;;6.28;1.73;;;19.30;99.90;;;;;;5116606;28;20127;-79
2023/05/28 12:44:21;;;;;;;4.80;2.13;;;19.20;99.90;;;;;;5115239;28;20123;-77